createdAt,value
2018-03-22T00:00:42.416Z,37.19
2018-03-22T00:03:08.693Z,37.25
2018-03-22T00:05:35.329Z,37.07
2018-03-22T00:08:01.614Z,37.43
2018-03-22T00:10:27.988Z,37.46
2018-03-22T00:12:54.488Z,37.03
2018-03-22T00:15:20.760Z,37.17
2018-03-22T00:17:47.514Z,36.99
2018-03-22T00:20:13.805Z,37.08
2018-03-22T00:22:40.157Z,37.22
2018-03-22T00:25:06.568Z,37.44
2018-03-22T00:27:32.840Z,37.44
2018-03-22T00:29:59.580Z,37.58
2018-03-22T00:32:25.881Z,37.53
2018-03-22T00:34:52.297Z,37.76
2018-03-22T00:37:18.612Z,38.18
2018-03-22T00:39:44.864Z,38.44
2018-03-22T00:42:11.563Z,38.81
2018-03-22T00:44:37.826Z,39.11
2018-03-22T00:47:04.337Z,39.24
2018-03-22T00:49:30.669Z,39.21
2018-03-22T00:51:56.991Z,39.17
2018-03-22T00:54:23.546Z,39.24
2018-03-22T00:56:49.848Z,39.25
2018-03-22T00:59:16.168Z,39.21
2018-03-22T01:01:42.613Z,39.38
2018-03-22T01:04:08.929Z,39.21
2018-03-22T01:06:35.505Z,39.26
2018-03-22T01:09:01.816Z,39.72
2018-03-22T01:11:28.158Z,39.53
2018-03-22T01:13:54.600Z,39.56
2018-03-22T01:16:20.865Z,39.62
2018-03-22T01:18:47.605Z,39.71
2018-03-22T01:21:13.882Z,39.73
2018-03-22T01:23:40.246Z,39.53
2018-03-22T01:26:06.720Z,39.46
2018-03-22T01:28:32.994Z,39.41
2018-03-22T01:30:59.701Z,39.33
2018-03-22T01:33:25.973Z,39.47
2018-03-22T01:35:52.368Z,39.36
2018-03-22T01:38:18.764Z,39.46
2018-03-22T01:40:45.072Z,39.23
2018-03-22T01:43:11.634Z,39.44
2018-03-22T01:45:37.922Z,39.28
2018-03-22T01:48:04.246Z,39.01
2018-03-22T01:50:30.644Z,38.93
2018-03-22T01:53:09.254Z,39.03
2018-03-22T01:55:35.821Z,38.91
2018-03-22T01:58:02.125Z,38.93
2018-03-22T02:00:28.601Z,38.63
2018-03-22T02:02:54.921Z,38.75
2018-03-22T02:05:21.466Z,38.61
2018-03-22T02:07:48.048Z,38.49
2018-03-22T02:10:14.428Z,38.19
2018-03-22T02:12:40.968Z,38.15
2018-03-22T02:15:07.258Z,38.10
2018-03-22T02:17:33.570Z,38.08
2018-03-22T02:20:00.101Z,37.95
2018-03-22T02:22:26.353Z,38.17
2018-03-22T02:24:52.985Z,38.21
2018-03-22T02:27:19.272Z,38.10
2018-03-22T02:29:45.542Z,38.00
2018-03-22T02:32:12.194Z,38.28
2018-03-22T02:34:38.452Z,38.41
2018-03-22T02:37:04.889Z,38.34
2018-03-22T02:39:31.193Z,38.14
2018-03-22T02:41:57.489Z,38.28
2018-03-22T02:44:24.076Z,38.43
2018-03-22T02:46:50.376Z,38.43
2018-03-22T02:49:16.904Z,38.18
2018-03-22T02:51:43.194Z,38.18
2018-03-22T02:54:10.003Z,38.45
2018-03-22T02:56:36.450Z,38.45
2018-03-22T02:59:02.854Z,38.45
2018-03-22T03:01:29.629Z,38.67
2018-03-22T03:03:55.905Z,38.78
2018-03-22T03:06:22.257Z,38.89
2018-03-22T03:08:48.680Z,39.02
2018-03-22T03:11:14.928Z,38.98
2018-03-22T03:13:41.553Z,38.99
2018-03-22T03:16:07.888Z,39.18
2018-03-22T03:18:34.215Z,39.06
2018-03-22T03:21:00.657Z,39.17
2018-03-22T03:23:26.966Z,39.25
2018-03-22T03:25:53.734Z,39.16
2018-03-22T03:28:20.013Z,39.37
2018-03-22T03:30:46.449Z,39.24
2018-03-22T03:33:12.865Z,39.42
2018-03-22T03:35:39.121Z,39.57
2018-03-22T03:38:05.639Z,39.44
2018-03-22T03:40:31.920Z,39.80
2018-03-22T03:42:58.194Z,39.80
2018-03-22T03:45:24.676Z,39.76
2018-03-22T03:47:50.933Z,39.73
2018-03-22T03:50:17.580Z,39.77
2018-03-22T03:52:43.887Z,39.55
2018-03-22T03:55:10.190Z,39.47
2018-03-22T03:57:36.628Z,39.26
2018-03-22T04:00:02.972Z,39.40
2018-03-22T04:02:29.560Z,39.63
2018-03-22T04:04:55.868Z,39.66
2018-03-22T04:07:22.214Z,39.19
2018-03-22T04:09:48.648Z,39.31
2018-03-22T04:12:14.920Z,39.41
2018-03-22T04:14:41.545Z,39.31
2018-03-22T04:17:07.821Z,39.28
2018-03-22T04:19:34.068Z,39.51
2018-03-22T04:22:00.585Z,39.42
2018-03-22T04:24:26.848Z,39.57
2018-03-22T04:26:53.484Z,39.64
2018-03-22T04:29:19.748Z,39.57
2018-03-22T04:31:45.989Z,39.63
2018-03-22T04:34:12.533Z,39.79
2018-03-22T04:36:38.808Z,39.72
2018-03-22T04:39:05.294Z,39.70
2018-03-22T04:41:31.560Z,39.95
2018-03-22T04:43:57.842Z,39.99
2018-03-22T04:46:24.447Z,40.07
2018-03-22T04:48:50.694Z,40.24
2018-03-22T04:51:17.242Z,40.61
2018-03-22T04:53:43.510Z,40.62
2018-03-22T04:56:09.764Z,40.48
2018-03-22T04:58:36.362Z,40.25
2018-03-22T05:01:02.639Z,40.45
2018-03-22T05:03:29.109Z,40.41
2018-03-22T05:05:55.504Z,40.47
2018-03-22T05:08:21.763Z,40.68
2018-03-22T05:10:48.284Z,40.75
2018-03-22T05:13:14.614Z,40.74
2018-03-22T05:15:41.073Z,40.64
2018-03-22T05:18:07.349Z,40.85
2018-03-22T05:20:33.632Z,40.64
2018-03-22T05:23:00.245Z,40.65
2018-03-22T05:25:26.530Z,40.59
2018-03-22T05:27:53.009Z,40.46
2018-03-22T05:30:19.280Z,40.60
2018-03-22T05:32:45.554Z,40.59
2018-03-22T05:35:12.148Z,40.28
2018-03-22T05:37:38.397Z,40.18
2018-03-22T05:40:04.752Z,40.31
2018-03-22T05:42:31.191Z,40.19
2018-03-22T05:44:57.441Z,39.99
2018-03-22T05:47:24.033Z,39.62
2018-03-22T05:49:50.328Z,39.72
2018-03-22T05:52:16.673Z,39.60
2018-03-22T05:54:43.128Z,39.83
2018-03-22T05:57:10.665Z,39.61
2018-03-22T05:59:37.121Z,39.64
2018-03-22T06:02:03.422Z,39.60
2018-03-22T06:04:30.169Z,39.38
2018-03-22T06:06:56.425Z,39.05
2018-03-22T06:09:22.740Z,38.93
2018-03-22T06:11:49.183Z,38.61
2018-03-22T06:14:15.425Z,38.19
2018-03-22T06:16:42.062Z,38.09
2018-03-22T06:19:08.334Z,37.63
2018-03-22T06:21:34.634Z,37.65
2018-03-22T06:24:01.072Z,37.39
2018-03-22T06:26:27.351Z,37.46
2018-03-22T06:28:53.918Z,37.03
2018-03-22T06:31:20.157Z,36.67
2018-03-22T06:33:46.423Z,36.79
2018-03-22T06:36:12.988Z,36.81
2018-03-22T06:38:39.231Z,36.96
2018-03-22T06:41:05.862Z,36.78
2018-03-22T06:43:32.174Z,36.89
2018-03-22T06:45:58.569Z,36.75
2018-03-22T06:48:25.075Z,36.85
2018-03-22T06:50:51.312Z,37.12
2018-03-22T06:53:17.897Z,37.22
2018-03-22T06:55:44.389Z,37.03
2018-03-22T06:58:10.623Z,36.94
2018-03-22T07:00:37.026Z,36.64
2018-03-22T07:03:03.302Z,37.10
2018-03-22T07:05:29.769Z,36.95
2018-03-22T07:07:56.020Z,37.59
2018-03-22T07:10:22.317Z,37.54
2018-03-22T07:12:48.870Z,37.74
2018-03-22T07:15:15.118Z,38.02
2018-03-22T07:17:41.706Z,37.82
2018-03-22T07:20:07.961Z,37.79
2018-03-22T07:22:34.197Z,37.79
2018-03-22T07:25:00.764Z,37.81
2018-03-22T07:27:27.001Z,37.85
2018-03-22T07:29:53.331Z,37.81
2018-03-22T07:32:19.672Z,37.45
2018-03-22T07:34:45.973Z,37.66
2018-03-22T07:37:12.543Z,37.25
2018-03-22T07:39:38.870Z,37.37
2018-03-22T07:42:05.256Z,37.88
2018-03-22T07:44:37.608Z,38.29
2018-03-22T07:47:04.136Z,38.23
2018-03-22T07:49:30.817Z,38.39
2018-03-22T07:51:57.089Z,38.70
2018-03-22T07:54:24.591Z,39.09
2018-03-22T07:56:50.880Z,39.17
2018-03-22T07:59:17.492Z,39.55
2018-03-22T08:01:43.875Z,39.91
2018-03-22T08:04:10.177Z,39.96
2018-03-22T08:06:36.839Z,39.72
2018-03-22T08:09:03.202Z,39.56
2018-03-22T08:11:29.754Z,40.44
2018-03-22T08:13:56.029Z,40.47
2018-03-22T08:16:22.351Z,40.55
2018-03-22T08:18:49.028Z,41.37
2018-03-22T08:21:15.281Z,42.01
2018-03-22T08:23:41.891Z,42.35
2018-03-22T08:26:08.201Z,42.45
2018-03-22T08:28:34.457Z,43.54
2018-03-22T08:31:01.002Z,43.79
2018-03-22T08:33:27.417Z,44.46
2018-03-22T08:35:54.120Z,44.68
2018-03-22T08:38:20.425Z,44.93
2018-03-22T08:40:46.712Z,44.77
2018-03-22T08:43:13.050Z,44.47
2018-03-22T08:45:39.357Z,44.54
2018-03-22T08:48:05.763Z,44.79
2018-03-22T08:50:32.021Z,44.99
2018-03-22T08:52:58.301Z,45.00
2018-03-22T08:55:24.936Z,45.71
2018-03-22T08:57:51.196Z,46.69
2018-03-22T09:00:17.829Z,47.40
2018-03-22T09:02:44.094Z,47.96
2018-03-22T09:05:10.369Z,48.18
2018-03-22T09:07:37.057Z,48.30
2018-03-22T09:10:03.352Z,48.31
2018-03-22T09:12:29.913Z,48.30
2018-03-22T09:14:56.225Z,47.76
2018-03-22T09:17:22.453Z,47.97
2018-03-22T09:19:48.729Z,48.45
2018-03-22T09:22:15.019Z,48.42
2018-03-22T09:24:41.425Z,48.39
2018-03-22T09:27:07.716Z,48.74
2018-03-22T09:29:34.009Z,49.71
2018-03-22T09:32:00.656Z,50.02
2018-03-22T09:34:26.928Z,49.96
2018-03-22T09:36:53.250Z,49.86
2018-03-22T09:39:19.745Z,49.52
2018-03-22T09:41:46.034Z,49.57
2018-03-22T09:44:12.673Z,49.45
2018-03-22T09:46:38.949Z,49.19
2018-03-22T09:49:06.236Z,49.11
2018-03-22T09:51:32.558Z,49.18
2018-03-22T09:53:58.850Z,50.40
2018-03-22T09:56:25.191Z,50.71
2018-03-22T09:58:51.468Z,51.40
2018-03-22T10:01:17.717Z,51.96
2018-03-22T10:03:43.974Z,51.97
2018-03-22T10:06:10.277Z,52.44
2018-03-22T10:08:36.565Z,52.16
2018-03-22T10:11:02.810Z,53.04
2018-03-22T10:13:29.084Z,53.30
2018-03-22T10:15:55.336Z,53.20
2018-03-22T10:18:21.592Z,54.25
2018-03-22T10:20:47.865Z,55.94
2018-03-22T10:23:14.129Z,56.71
2018-03-22T10:25:40.380Z,57.94
2018-03-22T10:28:06.710Z,58.43
2018-03-22T10:30:32.947Z,59.09
2018-03-22T10:32:59.268Z,58.61
2018-03-22T10:35:25.605Z,59.38
2018-03-22T10:37:52.071Z,58.55
2018-03-22T10:40:18.398Z,59.18
2018-03-22T10:42:44.736Z,60.30
2018-03-22T10:45:11.004Z,60.55
2018-03-22T10:47:37.288Z,60.59
2018-03-22T10:50:03.592Z,60.69
2018-03-22T10:52:30.096Z,61.10
2018-03-22T10:54:56.462Z,61.13
2018-03-22T10:57:23.115Z,61.15
2018-03-22T10:59:49.396Z,60.84
2018-03-22T11:05:13.548Z,61.18
2018-03-22T11:07:39.847Z,60.90
2018-03-22T11:10:06.145Z,60.22
2018-03-22T11:12:32.425Z,59.74
2018-03-22T11:14:58.720Z,59.65
2018-03-22T11:17:24.973Z,59.24
2018-03-22T11:19:51.290Z,58.73
2018-03-22T11:22:17.544Z,58.23
2018-03-22T11:24:43.797Z,57.54
2018-03-22T11:27:10.044Z,57.12
2018-03-22T11:29:36.335Z,56.92
2018-03-22T11:32:02.599Z,57.02
2018-03-22T11:34:28.861Z,56.60
2018-03-22T11:36:55.323Z,57.10
2018-03-22T11:39:21.594Z,57.96
2018-03-22T11:41:47.875Z,58.62
2018-03-22T11:44:14.238Z,59.50
2018-03-22T11:46:40.633Z,61.09
2018-03-22T11:49:08.946Z,62.23
2018-03-22T11:51:35.226Z,61.94
2018-03-22T11:54:01.492Z,61.98
2018-03-22T11:56:27.861Z,62.63
2018-03-22T11:58:54.092Z,62.56
2018-03-22T12:01:20.332Z,61.87
2018-03-22T12:03:46.613Z,62.13
2018-03-22T12:06:12.910Z,65.04
2018-03-22T12:08:39.168Z,62.92
2018-03-22T12:11:05.461Z,62.26
2018-03-22T12:13:31.872Z,59.59
2018-03-22T12:15:58.118Z,59.75
2018-03-22T12:18:24.408Z,58.15
2018-03-22T12:20:50.694Z,58.78
2018-03-22T12:23:16.925Z,58.75
2018-03-22T12:25:43.193Z,58.68
2018-03-22T12:28:09.477Z,58.39
2018-03-22T12:30:35.798Z,58.38
2018-03-22T12:33:02.059Z,58.14
2018-03-22T12:35:28.556Z,58.18
2018-03-22T12:37:54.820Z,58.25
2018-03-22T12:40:21.178Z,58.63
2018-03-22T12:42:47.510Z,58.72
2018-03-22T12:45:13.820Z,58.12
2018-03-22T12:47:40.048Z,57.53
2018-03-22T12:50:06.321Z,57.79
2018-03-22T12:52:32.693Z,57.86
2018-03-22T12:54:58.929Z,58.17
2018-03-22T12:57:25.216Z,58.88
2018-03-22T12:59:51.512Z,59.07
2018-03-22T13:02:17.811Z,60.35
2018-03-22T13:04:44.124Z,61.11
2018-03-22T13:07:10.369Z,62.65
2018-03-22T13:09:36.629Z,63.38
2018-03-22T13:12:02.907Z,64.50
2018-03-22T13:14:29.175Z,65.21
2018-03-22T13:16:55.430Z,65.82
2018-03-22T13:19:21.722Z,65.74
2018-03-22T13:21:47.991Z,65.42
2018-03-22T13:24:14.298Z,65.54
2018-03-22T13:26:40.575Z,65.28
2018-03-22T13:29:06.813Z,65.76
2018-03-22T13:31:33.042Z,66.17
2018-03-22T13:33:59.315Z,66.15
2018-03-22T13:36:25.605Z,66.66
2018-03-22T13:38:51.941Z,67.38
2018-03-22T13:41:18.215Z,67.88
2018-03-22T13:43:44.480Z,67.67
2018-03-22T13:46:10.706Z,67.48
2018-03-22T13:48:36.990Z,67.83
2018-03-22T13:51:03.238Z,67.84
2018-03-22T13:53:29.478Z,67.49
2018-03-22T13:55:55.780Z,66.46
2018-03-22T13:58:22.021Z,66.10
2018-03-22T14:00:48.260Z,66.37
2018-03-22T14:03:14.555Z,66.88
2018-03-22T14:05:40.816Z,67.63
2018-03-22T14:08:07.082Z,68.07
2018-03-22T14:10:33.385Z,68.11
2018-03-22T14:12:59.628Z,67.50
2018-03-22T14:15:25.884Z,67.53
2018-03-22T14:17:52.190Z,67.17
2018-03-22T14:20:18.436Z,67.60
2018-03-22T14:22:44.713Z,68.41
2018-03-22T14:25:11.001Z,68.47
2018-03-22T14:27:37.268Z,69.28
2018-03-22T14:30:03.570Z,69.35
2018-03-22T14:32:29.884Z,69.93
2018-03-22T14:34:56.131Z,70.16
2018-03-22T14:37:22.491Z,70.79
2018-03-22T14:39:48.813Z,71.08
2018-03-22T14:42:15.095Z,70.55
2018-03-22T14:44:41.363Z,70.61
2018-03-22T14:47:07.712Z,70.93
2018-03-22T14:49:34.021Z,70.96
2018-03-22T14:52:00.301Z,70.99
2018-03-22T14:54:26.667Z,70.70
2018-03-22T14:56:53.182Z,70.54
2018-03-22T14:59:19.465Z,70.59
2018-03-22T15:01:45.768Z,70.84
2018-03-22T15:04:12.044Z,70.60
2018-03-22T15:06:38.627Z,70.37
2018-03-22T15:09:05.371Z,70.50
2018-03-22T15:11:31.746Z,70.78
2018-03-22T15:13:58.270Z,71.12
2018-03-22T15:16:24.613Z,71.50
2018-03-22T15:18:51.146Z,72.06
2018-03-22T15:21:17.558Z,72.84
2018-03-22T15:23:44.141Z,72.70
2018-03-22T15:26:10.697Z,73.26
2018-03-22T15:28:37.496Z,73.53
2018-03-22T15:31:03.825Z,73.75
2018-03-22T15:33:30.250Z,73.53
2018-03-22T15:35:57.181Z,73.20
2018-03-22T15:38:23.730Z,72.68
2018-03-22T15:40:50.119Z,72.41
2018-03-22T15:43:16.656Z,72.86
2018-03-22T15:45:43.187Z,72.53
2018-03-22T15:48:09.481Z,72.31
2018-03-22T15:50:35.758Z,72.46
2018-03-22T15:53:02.037Z,72.53
2018-03-22T15:55:28.327Z,72.50
2018-03-22T15:57:54.607Z,72.77
2018-03-22T16:00:20.879Z,72.69
2018-03-22T16:02:47.254Z,72.23
2018-03-22T16:05:13.545Z,72.57
2018-03-22T16:07:39.823Z,72.25
2018-03-22T16:10:06.089Z,71.86
2018-03-22T16:12:32.353Z,71.57
2018-03-22T16:14:58.640Z,71.76
2018-03-22T16:17:24.900Z,71.83
2018-03-22T16:19:51.178Z,72.18
2018-03-22T16:22:17.477Z,72.17
2018-03-22T16:24:43.717Z,72.04
2018-03-22T16:27:09.965Z,71.92
2018-03-22T16:29:36.253Z,71.24
2018-03-22T16:32:02.492Z,70.96
2018-03-22T16:34:28.776Z,70.82
2018-03-22T16:36:55.063Z,70.52
2018-03-22T16:39:21.324Z,70.31
2018-03-22T16:41:47.723Z,70.66
2018-03-22T16:44:14.030Z,70.71
2018-03-22T16:46:40.389Z,70.24
2018-03-22T16:49:06.693Z,69.95
2018-03-22T16:51:33.069Z,69.84
2018-03-22T16:53:59.401Z,69.71
2018-03-22T16:56:25.684Z,70.37
2018-03-22T16:58:52.100Z,70.40
2018-03-22T17:01:18.346Z,70.11
2018-03-22T17:03:44.722Z,70.34
2018-03-22T17:06:11.001Z,70.30
2018-03-22T17:08:37.388Z,70.57
2018-03-22T17:11:03.666Z,70.90
2018-03-22T17:13:30.201Z,71.09
2018-03-22T17:15:56.553Z,71.49
2018-03-22T17:18:22.852Z,71.87
2018-03-22T17:20:49.172Z,72.30
2018-03-22T17:23:15.685Z,72.60
2018-03-22T17:25:42.250Z,73.02
2018-03-22T17:28:08.871Z,72.75
2018-03-22T17:30:35.156Z,72.89
2018-03-22T17:33:01.434Z,73.37
2018-03-22T17:35:27.713Z,73.16
2018-03-22T17:37:53.961Z,73.16
2018-03-22T17:40:20.302Z,73.37
2018-03-22T17:42:46.614Z,73.63
2018-03-22T17:45:12.865Z,73.80
2018-03-22T17:47:39.217Z,73.47
2018-03-22T17:50:05.532Z,73.64
2018-03-22T17:52:31.776Z,73.70
2018-03-22T17:54:58.050Z,74.01
2018-03-22T17:57:24.330Z,73.87
2018-03-22T17:59:50.605Z,74.06
2018-03-22T18:02:16.855Z,73.92
2018-03-22T18:04:43.141Z,73.72
2018-03-22T18:07:09.402Z,73.50
2018-03-22T18:09:35.662Z,73.40
2018-03-22T18:12:01.966Z,73.35
2018-03-22T18:14:28.240Z,73.84
2018-03-22T18:16:54.486Z,73.66
2018-03-22T18:19:20.784Z,73.47
2018-03-22T18:21:47.090Z,72.97
2018-03-22T18:24:13.348Z,73.03
2018-03-22T18:26:39.628Z,73.51
2018-03-22T18:29:05.897Z,73.87
2018-03-22T18:31:32.144Z,73.76
2018-03-22T18:33:58.452Z,73.72
2018-03-22T18:36:24.749Z,73.82
2018-03-22T18:38:50.997Z,74.21
2018-03-22T18:41:17.303Z,74.32
2018-03-22T18:43:43.540Z,74.50
2018-03-22T18:46:09.778Z,74.82
2018-03-22T18:48:36.068Z,75.03
2018-03-22T18:51:02.306Z,75.34
2018-03-22T18:53:28.555Z,75.40
2018-03-22T18:55:54.844Z,74.97
2018-03-22T18:58:21.181Z,75.26
2018-03-22T19:00:47.445Z,75.04
2018-03-22T19:03:13.730Z,74.88
2018-03-22T19:05:40.014Z,74.79
2018-03-22T19:08:06.276Z,74.87
2018-03-22T19:10:32.552Z,75.02
2018-03-22T19:12:58.834Z,75.21
2018-03-22T19:15:25.156Z,74.86
2018-03-22T19:17:51.447Z,74.90
2018-03-22T19:20:17.716Z,74.92
2018-03-22T19:22:44.020Z,74.99
2018-03-22T19:25:10.302Z,74.89
2018-03-22T19:27:36.592Z,74.76
2018-03-22T19:30:03.029Z,74.76
2018-03-22T19:32:29.309Z,74.94
2018-03-22T19:34:55.548Z,75.11
2018-03-22T19:37:22.050Z,75.18
2018-03-22T19:39:48.370Z,75.13
2018-03-22T19:42:14.621Z,75.09
2018-03-22T19:44:40.869Z,75.00
2018-03-22T19:47:07.147Z,74.75
2018-03-22T19:49:33.422Z,74.86
2018-03-22T19:51:59.674Z,75.14
2018-03-22T19:54:25.953Z,75.39
2018-03-22T19:56:52.224Z,75.93
2018-03-22T19:59:18.513Z,76.02
2018-03-22T20:01:44.801Z,76.48
2018-03-22T20:04:11.207Z,76.19
2018-03-22T20:06:37.449Z,75.88
2018-03-22T20:09:03.776Z,76.12
2018-03-22T20:11:30.044Z,76.21
2018-03-22T20:13:56.290Z,76.41
2018-03-22T20:16:22.602Z,76.29
2018-03-22T20:18:48.849Z,76.04
2018-03-22T20:21:15.134Z,75.74
2018-03-22T20:23:41.408Z,75.37
2018-03-22T20:26:07.665Z,75.30
2018-03-22T20:28:34.253Z,75.48
2018-03-22T20:31:00.538Z,75.11
2018-03-22T20:33:26.792Z,74.70
2018-03-22T20:35:53.053Z,74.40
2018-03-22T20:38:19.321Z,74.66
2018-03-22T20:40:45.578Z,75.09
2018-03-22T20:43:11.828Z,75.20
2018-03-22T20:45:38.233Z,75.03
2018-03-22T20:48:04.503Z,74.62
2018-03-22T20:50:30.772Z,74.38
2018-03-22T20:52:57.094Z,74.89
2018-03-22T20:55:23.753Z,74.67
2018-03-22T20:57:50.021Z,74.45
2018-03-22T21:00:16.739Z,74.01
2018-03-22T21:02:43.055Z,73.80
2018-03-22T21:05:09.305Z,73.65
2018-03-22T21:07:35.584Z,73.44
2018-03-22T21:10:01.887Z,73.59
2018-03-22T21:12:28.165Z,73.42
2018-03-22T21:14:54.819Z,73.48
2018-03-22T21:17:21.081Z,73.28
2018-03-22T21:19:47.377Z,73.86
2018-03-22T21:22:13.662Z,74.19
2018-03-22T21:24:39.944Z,73.75
2018-03-22T21:27:06.205Z,73.11
2018-03-22T21:29:32.513Z,72.98
2018-03-22T21:31:58.778Z,72.72
2018-03-22T21:34:25.021Z,72.86
2018-03-22T21:36:51.325Z,72.54
2018-03-22T21:39:17.609Z,72.41
2018-03-22T21:41:56.034Z,72.65
2018-03-22T21:44:22.297Z,73.13
2018-03-22T21:46:48.542Z,73.14
2018-03-22T21:49:14.827Z,73.61
2018-03-22T21:51:41.121Z,73.47
2018-03-22T21:54:07.471Z,73.04
2018-03-22T21:56:33.773Z,72.78
2018-03-22T21:59:00.049Z,72.94
2018-03-22T22:01:26.342Z,73.30
2018-03-22T22:03:52.720Z,73.53
2018-03-22T22:06:18.977Z,73.10
2018-03-22T22:08:45.255Z,72.83
2018-03-22T22:11:11.817Z,72.85
2018-03-22T22:13:38.078Z,72.67
2018-03-22T22:16:04.388Z,72.58
2018-03-22T22:18:30.652Z,72.70
2018-03-22T22:20:57.089Z,72.31
2018-03-22T22:23:23.775Z,72.49
2018-03-22T22:25:50.406Z,72.43
2018-03-22T22:28:16.677Z,72.44
2018-03-22T22:30:43.241Z,72.29
2018-03-22T22:33:09.615Z,72.63
2018-03-22T22:35:36.064Z,72.41
2018-03-22T22:38:02.413Z,71.91
2018-03-22T22:40:28.938Z,71.83
2018-03-22T22:42:55.367Z,71.91
2018-03-22T22:45:21.650Z,72.09
2018-03-22T22:47:47.946Z,72.21
2018-03-22T22:50:14.266Z,72.73
2018-03-22T22:52:40.552Z,73.00
2018-03-22T22:55:06.873Z,73.15
2018-03-22T22:57:33.136Z,73.17
2018-03-22T22:59:59.373Z,73.44
2018-03-22T23:02:25.757Z,73.42
2018-03-22T23:04:52.013Z,73.04
2018-03-22T23:07:18.337Z,72.50
2018-03-22T23:09:44.821Z,72.62
2018-03-22T23:12:11.101Z,73.06
2018-03-22T23:14:37.365Z,73.15
2018-03-22T23:17:04.125Z,73.16
2018-03-22T23:19:30.620Z,73.18
2018-03-22T23:21:56.921Z,72.93
2018-03-22T23:24:23.380Z,72.89
2018-03-22T23:26:49.752Z,72.87
2018-03-22T23:29:16.244Z,72.96
2018-03-22T23:31:43.068Z,72.92
2018-03-22T23:34:09.328Z,72.95
2018-03-22T23:36:35.971Z,72.69
2018-03-22T23:39:02.368Z,72.70
2018-03-22T23:41:28.918Z,72.81
2018-03-22T23:43:55.306Z,73.24
2018-03-22T23:46:21.894Z,73.08
2018-03-22T23:48:48.477Z,72.92
2018-03-22T23:51:14.746Z,73.37
2018-03-22T23:53:41.233Z,73.17
2018-03-22T23:56:07.490Z,72.97
2018-03-22T23:58:34.150Z,73.04
